createdAt,value
2023-05-01T00:02:22.406Z,43.78
2023-05-01T00:04:48.931Z,44.22
2023-05-01T00:07:30.441Z,44.72
2023-05-01T00:08:40.426Z,44.95
2023-05-01T00:11:05.420Z,45.59
2023-05-01T00:13:30.064Z,46.03
2023-05-01T00:15:54.301Z,46.45
2023-05-01T00:18:20.953Z,46.73
2023-05-01T00:20:46.540Z,47.13
2023-05-01T00:23:12.448Z,47.32
2023-05-01T00:25:37.246Z,47.47
2023-05-01T00:28:03.675Z,47.20
2023-05-01T00:30:28.863Z,46.93
2023-05-01T00:32:54.437Z,46.75
2023-05-01T00:34:05.043Z,46.33
2023-05-01T00:36:50.130Z,45.79
2023-05-01T00:37:59.956Z,45.68
2023-05-01T00:40:24.893Z,45.22
2023-05-01T00:41:35.163Z,45.07
2023-05-01T00:44:00.714Z,44.85
2023-05-01T00:46:26.411Z,44.93
2023-05-01T00:48:53.622Z,45.02
2023-05-01T00:50:04.340Z,44.99
2023-05-01T00:52:29.521Z,44.88
2023-05-01T00:53:41.961Z,44.97
2023-05-01T00:56:33.346Z,45.12
2023-05-01T00:57:42.734Z,45.30
2023-05-01T00:58:52.971Z,45.26
2023-05-01T01:01:17.032Z,45.61
2023-05-01T01:03:43.632Z,46.41
2023-05-01T01:06:25.071Z,47.21
2023-05-01T01:09:23.827Z,47.49
2023-05-01T01:13:36.144Z,48.06
2023-05-01T01:15:06.706Z,47.99
2023-05-01T01:18:11.723Z,48.39
2023-05-01T01:19:30.271Z,48.59
2023-05-01T01:22:13.885Z,49.30
2023-05-01T01:25:40.459Z,50.19
2023-05-01T01:28:38.253Z,50.92
2023-05-01T01:31:20.883Z,51.55
2023-05-01T01:35:37.064Z,51.80
2023-05-01T01:40:06.265Z,52.42
2023-05-01T01:45:27.951Z,52.88
2023-05-01T01:47:55.748Z,53.24
2023-05-01T01:50:27.955Z,53.43
2023-05-01T01:53:00.204Z,53.41
2023-05-01T01:55:32.236Z,53.49
2023-05-01T01:57:59.302Z,53.36
2023-05-01T01:59:09.665Z,53.32
2023-05-01T02:01:39.952Z,53.27
2023-05-01T02:04:08.715Z,53.60
2023-05-01T02:06:40.051Z,53.46
2023-05-01T02:09:10.065Z,53.60
2023-05-01T02:11:39.677Z,53.75
2023-05-01T02:14:08.924Z,53.97
2023-05-01T02:16:36.998Z,54.34
2023-05-01T02:19:23.914Z,54.67
2023-05-01T02:20:33.964Z,54.86
2023-05-01T02:23:00.778Z,54.96
2023-05-01T02:25:30.563Z,55.21
2023-05-01T02:26:43.749Z,55.14
2023-05-01T02:29:18.574Z,55.21
2023-05-01T02:31:44.201Z,55.29
2023-05-01T02:34:09.873Z,55.54
2023-05-01T02:36:35.453Z,55.89
2023-05-01T02:39:05.356Z,56.39
2023-05-01T02:41:35.064Z,56.97
2023-05-01T02:44:05.924Z,57.39
2023-05-01T02:46:38.315Z,57.49
2023-05-01T02:49:12.948Z,58.13
2023-05-01T02:50:27.942Z,58.40
2023-05-01T02:51:46.039Z,58.49
2023-05-01T02:54:45.263Z,59.28
2023-05-01T02:55:55.497Z,59.74
2023-05-01T02:58:24.492Z,59.77
2023-05-01T02:59:34.528Z,59.74
2023-05-01T03:00:51.707Z,59.51
2023-05-01T03:03:16.740Z,59.20
2023-05-01T03:05:42.835Z,59.10
2023-05-01T03:08:08.547Z,58.99
2023-05-01T03:10:33.262Z,59.21
2023-05-01T03:11:44.648Z,59.36
2023-05-01T03:12:53.832Z,59.52
2023-05-01T03:15:19.179Z,59.70
2023-05-01T03:16:28.987Z,59.72
2023-05-01T03:18:54.001Z,59.39
2023-05-01T03:20:06.095Z,59.41
2023-05-01T03:21:15.690Z,59.41
2023-05-01T03:22:25.372Z,59.64
2023-05-01T03:23:34.157Z,59.62
2023-05-01T03:24:44.840Z,59.79
2023-05-01T03:27:10.442Z,58.84
2023-05-01T03:29:39.737Z,57.51
2023-05-01T03:32:07.646Z,56.17
2023-05-01T03:34:34.641Z,54.05
2023-05-01T03:35:44.308Z,53.10
2023-05-01T03:38:09.451Z,52.46
2023-05-01T03:39:26.867Z,51.14
2023-05-01T03:42:44.864Z,49.11
2023-05-01T03:45:11.774Z,48.28
2023-05-01T03:47:59.013Z,45.76
2023-05-01T03:50:23.853Z,45.18
2023-05-01T03:52:53.825Z,43.69
2023-05-01T03:54:03.473Z,42.88
2023-05-01T03:56:31.431Z,41.95
2023-05-01T03:59:16.904Z,43.18
2023-05-01T04:27:50.055Z,45.13
2023-05-01T04:30:17.072Z,45.24
2023-05-01T04:31:26.147Z,45.22
2023-05-01T04:33:52.316Z,45.05
2023-05-01T04:36:18.003Z,44.61
2023-05-01T04:38:44.029Z,44.11
2023-05-01T04:41:11.511Z,44.06
2023-05-01T04:42:21.186Z,42.66
2023-05-01T04:43:30.678Z,42.84
2023-05-01T04:45:55.950Z,42.14
2023-05-01T04:47:06.241Z,42.59
2023-05-01T04:48:16.484Z,42.34
2023-05-01T04:49:26.083Z,42.18
2023-05-01T04:51:50.862Z,41.58
2023-05-01T04:54:15.312Z,41.25
2023-05-01T04:55:25.523Z,41.52
2023-05-01T04:58:03.115Z,41.23
2023-05-01T05:00:28.185Z,40.38
2023-05-01T05:02:54.170Z,40.24
2023-05-01T05:05:19.273Z,40.21
2023-05-01T05:07:47.564Z,41.09
2023-05-01T05:10:32.789Z,40.57
2023-05-01T05:13:41.658Z,39.80
2023-05-01T05:16:07.708Z,38.85
2023-05-01T05:18:31.915Z,38.33
2023-05-01T05:20:56.813Z,38.72
2023-05-01T05:22:06.953Z,39.02
2023-05-01T05:24:32.467Z,38.39
2023-05-01T05:25:41.969Z,37.95
2023-05-01T05:26:52.063Z,38.05
2023-05-01T05:28:01.295Z,38.37
2023-05-01T05:29:10.587Z,38.06
2023-05-01T05:31:35.258Z,37.50
2023-05-01T05:32:45.133Z,37.18
2023-05-01T05:35:09.036Z,37.16
2023-05-01T05:37:33.843Z,36.38
2023-05-01T05:39:58.832Z,36.91
2023-05-01T05:42:23.271Z,36.92
2023-05-01T05:44:47.641Z,36.35
2023-05-01T05:47:14.175Z,36.12
2023-05-01T05:49:38.339Z,37.38
2023-05-01T05:50:50.114Z,37.27
2023-05-01T05:53:16.760Z,36.04
2023-05-01T05:54:26.627Z,35.28
2023-05-01T05:55:35.627Z,34.97
2023-05-01T05:56:48.092Z,34.54
2023-05-01T05:58:01.974Z,34.71
2023-05-01T05:59:11.257Z,34.73
2023-05-01T06:00:20.381Z,34.41
2023-05-01T06:02:45.088Z,33.61
2023-05-01T06:03:54.773Z,33.66
2023-05-01T06:06:22.755Z,34.15
2023-05-01T06:07:33.220Z,34.20
2023-05-01T06:10:03.549Z,34.12
2023-05-01T06:12:29.459Z,34.07
2023-05-01T06:13:38.593Z,34.12
2023-05-01T06:16:04.623Z,33.89
2023-05-01T06:18:30.431Z,33.66
2023-05-01T06:19:40.100Z,33.67
2023-05-01T06:22:26.536Z,33.41
2023-05-01T06:23:42.690Z,34.01
2023-05-01T06:25:12.790Z,34.00
2023-05-01T06:27:38.356Z,34.52
2023-05-01T06:30:02.779Z,33.45
2023-05-01T06:32:28.716Z,32.75
2023-05-01T06:33:41.244Z,32.67
2023-05-01T06:34:53.696Z,31.85
2023-05-01T06:37:17.723Z,31.38
2023-05-01T06:39:43.792Z,31.80
2023-05-01T06:42:12.188Z,32.09
2023-05-01T06:44:36.341Z,32.00
2023-05-01T06:47:01.133Z,31.62
2023-05-01T06:49:25.258Z,31.08
2023-05-01T06:51:49.820Z,29.59
2023-05-01T06:54:22.708Z,29.12
2023-05-01T06:56:48.886Z,28.92
2023-05-01T06:59:12.763Z,28.48
2023-05-01T07:01:38.990Z,27.53
2023-05-01T07:04:03.568Z,28.18
2023-05-01T07:05:13.951Z,28.53
2023-05-01T07:06:24.047Z,27.69
2023-05-01T07:08:49.913Z,27.02
2023-05-01T07:11:13.380Z,26.86
2023-05-01T07:13:38.997Z,27.96
2023-05-01T07:14:48.511Z,28.31
2023-05-01T07:17:12.887Z,27.88
2023-05-01T07:18:22.004Z,27.62
2023-05-01T07:19:31.106Z,27.85
2023-05-01T07:20:42.899Z,27.73
2023-05-01T07:23:09.600Z,27.26
2023-05-01T07:25:33.958Z,27.69
2023-05-01T07:28:19.011Z,27.94
2023-05-01T07:30:42.525Z,27.72
2023-05-01T07:31:52.226Z,27.67
2023-05-01T07:33:01.668Z,27.85
2023-05-01T07:35:28.271Z,27.20
2023-05-01T07:36:39.027Z,27.49
2023-05-01T07:39:10.669Z,28.54
2023-05-01T07:41:36.008Z,28.90
2023-05-01T07:44:00.960Z,28.34
2023-05-01T07:45:10.640Z,28.02
2023-05-01T07:47:35.957Z,28.21
2023-05-01T07:50:01.547Z,28.40
2023-05-01T07:51:11.130Z,28.33
2023-05-01T07:52:21.314Z,28.48
2023-05-01T07:53:30.618Z,28.40
2023-05-01T07:56:07.116Z,28.41
2023-05-01T07:57:16.662Z,28.06
2023-05-01T07:58:26.551Z,27.89
2023-05-01T07:59:35.466Z,28.02
2023-05-01T08:02:01.233Z,26.13
2023-05-01T08:04:27.474Z,26.54
2023-05-01T08:05:38.317Z,26.83
2023-05-01T08:06:47.164Z,27.00
2023-05-01T08:07:56.378Z,27.21
2023-05-01T08:10:21.378Z,28.21
2023-05-01T08:11:33.414Z,28.17
2023-05-01T08:12:43.278Z,27.40
2023-05-01T08:13:59.172Z,26.56
2023-05-01T08:16:24.447Z,26.46
2023-05-01T08:18:51.205Z,26.70
2023-05-01T08:21:16.228Z,26.20
2023-05-01T08:22:24.941Z,26.21
2023-05-01T08:24:51.377Z,26.37
2023-05-01T08:27:35.163Z,26.82
2023-05-01T08:28:43.855Z,26.80
2023-05-01T08:29:52.957Z,26.56
2023-05-01T08:31:04.871Z,26.80
2023-05-01T08:33:31.921Z,26.68
2023-05-01T08:35:56.632Z,26.75
2023-05-01T08:38:21.986Z,26.29
2023-05-01T08:39:32.614Z,26.40
2023-05-01T08:40:43.444Z,26.19
2023-05-01T08:41:53.331Z,26.48
2023-05-01T08:44:19.322Z,26.67
2023-05-01T08:45:31.694Z,26.63
2023-05-01T08:48:12.648Z,26.90
2023-05-01T08:49:24.713Z,26.86
2023-05-01T08:51:57.361Z,27.08
2023-05-01T08:54:24.075Z,26.59
2023-05-01T08:56:53.009Z,26.52
2023-05-01T08:59:24.569Z,26.55
2023-05-01T09:01:52.836Z,27.24
2023-05-01T09:04:21.063Z,27.49
2023-05-01T09:06:49.433Z,26.80
2023-05-01T09:09:16.879Z,26.13
2023-05-01T09:11:44.467Z,26.34
2023-05-01T09:14:17.639Z,26.07
2023-05-01T09:16:43.901Z,25.73
2023-05-01T09:19:11.214Z,26.65
2023-05-01T09:21:42.816Z,27.05
2023-05-01T09:24:08.302Z,26.76
2023-05-01T09:26:35.083Z,27.10
2023-05-01T09:29:05.644Z,27.01
2023-05-01T09:31:49.824Z,26.97
2023-05-01T09:34:25.587Z,26.70
2023-05-01T09:37:14.721Z,26.21
2023-05-01T09:39:42.052Z,26.81
2023-05-01T09:42:27.865Z,27.02
2023-05-01T09:44:54.213Z,26.96
2023-05-01T09:47:27.061Z,27.15
2023-05-01T09:49:53.126Z,27.62
2023-05-01T09:52:19.228Z,27.62
2023-05-01T09:55:17.245Z,27.49
2023-05-01T09:56:28.650Z,27.52
2023-05-01T09:58:55.923Z,27.23
2023-05-01T10:01:45.491Z,27.04
2023-05-01T10:04:11.340Z,27.02
2023-05-01T10:05:20.408Z,26.87
2023-05-01T10:07:59.544Z,26.83
2023-05-01T10:10:29.271Z,26.80
2023-05-01T10:13:15.155Z,26.92
2023-05-01T10:15:41.670Z,26.76
2023-05-01T10:18:09.827Z,26.68
2023-05-01T10:19:19.581Z,26.74
2023-05-01T10:21:44.334Z,26.84
2023-05-01T10:24:10.544Z,26.38
2023-05-01T10:26:37.143Z,25.55
2023-05-01T10:29:04.193Z,26.09
2023-05-01T10:31:32.475Z,26.12
2023-05-01T10:34:02.258Z,25.80
2023-05-01T10:36:42.460Z,26.04
2023-05-01T10:39:29.909Z,25.83
2023-05-01T10:42:17.272Z,26.02
2023-05-01T10:44:46.212Z,25.79
2023-05-01T10:46:26.511Z,25.38
2023-05-01T10:48:57.499Z,25.87
2023-05-01T10:52:03.668Z,26.05
2023-05-01T10:53:16.369Z,26.08
2023-05-01T10:55:50.180Z,26.45
2023-05-01T10:57:02.871Z,26.57
2023-05-01T11:00:03.561Z,24.96
2023-05-01T11:01:42.210Z,25.21
2023-05-01T11:04:23.836Z,25.86
2023-05-01T11:07:17.998Z,26.01
2023-05-01T11:08:36.836Z,26.04
2023-05-01T11:09:51.079Z,26.30
2023-05-01T11:12:51.873Z,25.88
2023-05-01T11:15:31.996Z,24.65
2023-05-01T11:18:02.887Z,25.02
2023-05-01T11:20:47.854Z,24.67
2023-05-01T11:23:16.463Z,24.79
2023-05-01T11:24:33.739Z,24.72
2023-05-01T11:26:59.768Z,24.26
2023-05-01T11:29:27.051Z,23.84
2023-05-01T11:31:57.239Z,24.42
2023-05-01T11:33:10.446Z,24.63
2023-05-01T11:35:38.860Z,24.86
2023-05-01T11:36:53.400Z,25.04
2023-05-01T11:39:43.000Z,24.56
2023-05-01T11:40:59.666Z,24.19
2023-05-01T11:43:27.218Z,23.96
2023-05-01T11:44:37.189Z,24.14
2023-05-01T11:47:26.499Z,24.41
2023-05-01T11:49:53.078Z,24.38
2023-05-01T11:52:21.579Z,24.40
2023-05-01T11:53:32.138Z,24.58
2023-05-01T11:54:49.163Z,24.66
2023-05-01T11:57:15.274Z,24.71
2023-05-01T11:58:32.765Z,24.89
2023-05-01T12:01:00.578Z,24.50
2023-05-01T12:03:34.189Z,24.83
2023-05-01T12:05:58.254Z,24.72
2023-05-01T12:08:26.717Z,24.49
2023-05-01T12:10:55.385Z,24.20
2023-05-01T12:13:22.642Z,23.87
2023-05-01T12:14:31.753Z,23.71
2023-05-01T12:17:04.179Z,23.40
2023-05-01T12:18:14.589Z,23.65
2023-05-01T12:19:24.076Z,23.99
2023-05-01T12:20:42.203Z,24.25
2023-05-01T12:23:37.867Z,25.13
2023-05-01T12:26:22.709Z,25.08
2023-05-01T12:29:01.036Z,25.04
2023-05-01T12:31:27.279Z,24.83
2023-05-01T12:35:16.766Z,24.32
2023-05-01T12:36:31.458Z,24.05
2023-05-01T12:37:41.634Z,23.29
2023-05-01T12:39:09.173Z,22.55
2023-05-01T12:41:44.902Z,22.72
2023-05-01T12:44:22.016Z,23.75
2023-05-01T12:46:58.333Z,23.79
2023-05-01T12:48:16.664Z,24.00
2023-05-01T12:50:42.718Z,24.01
2023-05-01T12:53:10.957Z,24.19
2023-05-01T12:57:16.070Z,24.03
2023-05-01T12:59:56.219Z,23.63
2023-05-01T13:02:26.031Z,23.66
2023-05-01T13:03:38.517Z,23.77
2023-05-01T13:04:49.988Z,23.96
2023-05-01T13:06:05.041Z,24.14
2023-05-01T13:08:37.215Z,24.12
2023-05-01T13:09:59.347Z,24.07
2023-05-01T13:11:14.909Z,24.25
2023-05-01T13:13:42.668Z,24.16
2023-05-01T13:16:12.824Z,23.07
2023-05-01T13:17:32.870Z,23.38
2023-05-01T13:18:47.681Z,23.61
2023-05-01T13:20:02.512Z,23.47
2023-05-01T13:21:14.258Z,23.69
2023-05-01T13:23:58.129Z,23.58
2023-05-01T13:26:36.124Z,23.87
2023-05-01T13:29:07.681Z,24.07
2023-05-01T13:31:44.280Z,23.65
2023-05-01T13:34:10.804Z,24.05
2023-05-01T13:36:40.976Z,23.84
2023-05-01T13:39:05.274Z,23.98
2023-05-01T13:41:35.064Z,23.90
2023-05-01T13:42:44.773Z,24.36
2023-05-01T13:45:22.079Z,24.36
2023-05-01T13:47:48.887Z,24.38
2023-05-01T13:50:17.694Z,24.52
2023-05-01T13:52:44.031Z,24.44
2023-05-01T13:55:13.142Z,24.52
2023-05-01T13:56:22.312Z,24.82
2023-05-01T13:57:31.517Z,24.92
2023-05-01T13:59:55.934Z,24.96
2023-05-01T14:02:34.341Z,24.83
2023-05-01T14:03:44.069Z,24.81
2023-05-01T14:06:16.405Z,24.15
2023-05-01T14:08:42.667Z,24.46
2023-05-01T14:11:13.475Z,24.56
2023-05-01T14:13:45.292Z,24.81
2023-05-01T14:16:24.682Z,24.58
2023-05-01T14:18:55.884Z,24.74
2023-05-01T14:21:23.369Z,24.82
2023-05-01T14:24:04.948Z,24.16
2023-05-01T14:26:44.087Z,24.11
2023-05-01T14:30:42.225Z,24.43
2023-05-01T14:33:11.905Z,24.53
2023-05-01T14:34:21.103Z,24.58
2023-05-01T14:36:45.709Z,24.17
2023-05-01T14:39:16.718Z,24.10
2023-05-01T14:41:42.546Z,24.24
2023-05-01T14:44:17.553Z,24.53
2023-05-01T14:46:49.726Z,24.63
2023-05-01T14:50:37.623Z,24.82
2023-05-01T14:53:01.490Z,24.74
2023-05-01T14:55:30.204Z,24.80
2023-05-01T14:57:58.130Z,24.34
2023-05-01T15:00:26.221Z,23.70
2023-05-01T15:02:52.162Z,23.83
2023-05-01T15:05:17.192Z,24.24
2023-05-01T15:07:42.676Z,24.45
2023-05-01T15:08:51.580Z,24.40
2023-05-01T15:10:00.670Z,24.01
2023-05-01T15:11:11.590Z,24.06
2023-05-01T15:13:36.886Z,23.84
2023-05-01T15:14:46.613Z,23.80
2023-05-01T15:15:56.055Z,23.75
2023-05-01T15:17:06.612Z,23.87
2023-05-01T15:19:30.269Z,23.92
2023-05-01T15:21:54.223Z,24.28
2023-05-01T15:24:22.717Z,24.41
2023-05-01T15:26:47.515Z,24.33
2023-05-01T15:29:12.087Z,24.37
2023-05-01T15:31:37.302Z,24.99
2023-05-01T15:32:46.894Z,24.95
2023-05-01T15:33:55.596Z,24.91
2023-05-01T15:36:20.137Z,24.90
2023-05-01T15:38:47.268Z,24.81
2023-05-01T15:41:10.662Z,24.78
2023-05-01T15:43:36.455Z,24.65
2023-05-01T15:46:00.748Z,24.74
2023-05-01T15:48:25.849Z,24.98
2023-05-01T15:49:35.153Z,25.16
2023-05-01T15:51:58.915Z,25.40
2023-05-01T15:54:24.445Z,24.96
2023-05-01T15:56:49.399Z,25.20
2023-05-01T15:59:13.800Z,24.89
2023-05-01T16:01:38.744Z,25.08
2023-05-01T16:04:04.087Z,25.57
2023-05-01T16:06:33.417Z,25.33
2023-05-01T16:09:04.540Z,25.56
2023-05-01T16:11:30.669Z,25.76
2023-05-01T16:13:55.411Z,25.73
2023-05-01T16:16:26.662Z,25.76
2023-05-01T16:18:59.380Z,25.30
2023-05-01T16:21:28.325Z,25.49
2023-05-01T16:24:18.166Z,25.51
2023-05-01T16:26:43.760Z,25.64
2023-05-01T16:27:52.744Z,25.82
2023-05-01T16:30:22.706Z,25.92
2023-05-01T16:32:56.704Z,26.10
2023-05-01T16:35:27.357Z,25.72
2023-05-01T16:37:55.932Z,25.66
2023-05-01T16:40:21.283Z,25.70
2023-05-01T16:42:53.005Z,25.86
2023-05-01T16:45:18.041Z,26.25
2023-05-01T16:47:44.534Z,26.21
2023-05-01T16:50:11.689Z,26.29
2023-05-01T16:52:35.921Z,26.44
2023-05-01T16:53:47.198Z,26.40
2023-05-01T16:54:56.961Z,26.52
2023-05-01T16:56:09.436Z,26.61
2023-05-01T16:58:33.290Z,26.93
2023-05-01T17:00:57.363Z,27.22
2023-05-01T17:03:24.508Z,27.13
2023-05-01T17:05:50.385Z,27.43
2023-05-01T17:08:14.179Z,27.79
2023-05-01T17:10:38.639Z,28.04
2023-05-01T17:13:04.860Z,28.12
2023-05-01T17:15:28.424Z,28.26
2023-05-01T17:16:39.709Z,28.22
2023-05-01T17:19:10.119Z,28.30
2023-05-01T17:21:35.289Z,28.46
2023-05-01T17:24:00.523Z,28.59
2023-05-01T17:26:25.985Z,28.39
2023-05-01T17:28:51.154Z,28.50
2023-05-01T17:30:00.465Z,28.37
2023-05-01T17:32:35.908Z,28.36
2023-05-01T17:33:38.474Z,28.48
2023-05-01T17:34:47.937Z,28.52
2023-05-01T17:37:20.676Z,28.77
2023-05-01T17:39:44.515Z,28.84
2023-05-01T17:42:10.462Z,28.90
2023-05-01T17:44:36.075Z,29.22
2023-05-01T17:47:00.532Z,29.11
2023-05-01T17:49:25.082Z,29.18
2023-05-01T17:51:49.024Z,29.11
2023-05-01T17:52:59.486Z,29.15
2023-05-01T17:54:08.606Z,29.19
2023-05-01T17:55:18.671Z,29.30
2023-05-01T17:57:43.755Z,29.46
2023-05-01T17:58:53.566Z,29.34
2023-05-01T18:00:04.656Z,29.22
2023-05-01T18:01:15.366Z,29.22
2023-05-01T18:03:40.147Z,29.04
2023-05-01T18:06:05.661Z,29.03
2023-05-01T18:07:14.436Z,29.16
2023-05-01T18:09:41.107Z,29.26
2023-05-01T18:12:06.003Z,29.21
2023-05-01T18:14:31.521Z,29.47
2023-05-01T18:16:56.415Z,29.56
2023-05-01T18:19:20.268Z,29.47
2023-05-01T18:21:44.487Z,29.32
2023-05-01T18:22:54.950Z,29.36
2023-05-01T18:25:19.977Z,29.48
2023-05-01T18:27:46.681Z,29.66
2023-05-01T18:30:10.970Z,29.69
2023-05-01T18:31:21.574Z,29.80
2023-05-01T18:32:46.136Z,29.87
2023-05-01T18:34:57.326Z,29.89
2023-05-01T18:37:23.093Z,29.97
2023-05-01T18:39:46.454Z,29.87
2023-05-01T18:42:10.159Z,29.75
2023-05-01T18:44:34.110Z,29.63
2023-05-01T18:46:58.833Z,29.46
2023-05-01T18:49:24.929Z,29.43
2023-05-01T18:51:51.301Z,29.51
2023-05-01T18:54:17.671Z,29.53
2023-05-01T18:56:41.434Z,29.77
2023-05-01T18:59:05.564Z,29.80
2023-05-01T19:01:32.892Z,30.00
2023-05-01T19:04:00.640Z,29.58
2023-05-01T19:06:28.939Z,29.25
2023-05-01T19:08:54.403Z,29.38
2023-05-01T19:11:19.499Z,29.50
2023-05-01T19:13:47.177Z,29.51
2023-05-01T19:16:13.510Z,29.48
2023-05-01T19:18:39.725Z,29.47
2023-05-01T19:21:04.875Z,29.15
2023-05-01T19:23:31.361Z,29.15
2023-05-01T19:25:55.025Z,29.39
2023-05-01T19:28:19.460Z,29.30
2023-05-01T19:30:43.566Z,29.14
2023-05-01T19:33:11.891Z,29.11
2023-05-01T19:35:55.734Z,29.21
2023-05-01T19:38:20.113Z,29.06
2023-05-01T19:40:45.260Z,29.06
2023-05-01T19:43:13.566Z,29.08
2023-05-01T19:46:45.665Z,29.13
2023-05-01T19:49:10.945Z,29.06
2023-05-01T19:51:36.040Z,29.07
2023-05-01T19:54:01.313Z,29.05
2023-05-01T19:56:27.846Z,28.99
2023-05-01T19:58:54.558Z,28.88
2023-05-01T20:01:21.437Z,28.86
2023-05-01T20:02:30.724Z,28.78
2023-05-01T20:04:54.972Z,28.62
2023-05-01T20:06:05.785Z,28.48
2023-05-01T20:07:14.590Z,28.40
2023-05-01T20:09:39.400Z,28.30
2023-05-01T20:10:49.268Z,28.33
2023-05-01T20:13:13.864Z,28.01
2023-05-01T20:15:39.276Z,27.73
2023-05-01T20:16:52.535Z,27.90
2023-05-01T20:19:17.828Z,27.59
2023-05-01T20:21:41.556Z,27.94
2023-05-01T20:22:52.830Z,28.02
2023-05-01T20:24:01.924Z,28.09
2023-05-01T20:26:27.174Z,28.04
2023-05-01T20:28:53.864Z,27.87
2023-05-01T20:30:02.786Z,27.73
2023-05-01T20:32:27.791Z,27.28
2023-05-01T20:34:55.025Z,26.83
2023-05-01T20:36:06.728Z,27.21
2023-05-01T20:37:16.436Z,27.08
2023-05-01T20:39:41.907Z,27.54
2023-05-01T20:42:07.180Z,26.72
2023-05-01T20:43:16.326Z,27.17
2023-05-01T20:44:26.971Z,27.22
2023-05-01T20:46:52.439Z,26.91
2023-05-01T20:49:17.163Z,26.67
2023-05-01T20:50:26.753Z,27.13
2023-05-01T20:51:36.123Z,27.11
2023-05-01T20:54:00.466Z,27.14
2023-05-01T20:55:11.649Z,26.96
2023-05-01T20:56:20.762Z,26.92
2023-05-01T20:57:29.719Z,26.69
2023-05-01T20:59:57.289Z,26.44
2023-05-01T21:01:07.365Z,26.60
2023-05-01T21:03:32.961Z,26.65
2023-05-01T21:04:43.699Z,26.77
2023-05-01T21:05:53.115Z,26.67
2023-05-01T21:08:16.757Z,26.52
2023-05-01T21:10:41.086Z,26.67
2023-05-01T21:11:50.271Z,26.70
2023-05-01T21:14:15.898Z,26.74
2023-05-01T21:15:27.500Z,26.43
2023-05-01T21:16:37.879Z,26.73
2023-05-01T21:17:46.665Z,26.63
2023-05-01T21:20:15.522Z,26.83
2023-05-01T21:21:26.454Z,26.62
2023-05-01T21:23:51.455Z,26.70
2023-05-01T21:25:00.077Z,26.86
2023-05-01T21:27:26.945Z,26.69
2023-05-01T21:29:59.137Z,26.86
2023-05-01T21:33:50.425Z,26.90
2023-05-01T21:36:18.881Z,27.01
2023-05-01T21:37:28.966Z,27.09
2023-05-01T21:38:39.684Z,27.13
2023-05-01T21:39:49.748Z,27.19
2023-05-01T21:42:15.541Z,27.32
2023-05-01T21:43:25.083Z,27.45
2023-05-01T21:44:36.063Z,27.43
2023-05-01T21:45:47.078Z,27.44
2023-05-01T21:48:15.974Z,27.37
2023-05-01T21:49:31.741Z,27.31
2023-05-01T21:53:16.849Z,27.36
2023-05-01T21:55:45.985Z,27.25
2023-05-01T21:58:24.267Z,27.44
2023-05-01T22:00:51.743Z,27.43
2023-05-01T22:03:24.373Z,27.57
2023-05-01T22:04:34.335Z,27.49
2023-05-01T22:27:51.976Z,27.68
2023-05-01T22:29:01.739Z,27.70
2023-05-01T22:31:27.530Z,27.85
2023-05-01T22:33:52.971Z,27.95
2023-05-01T22:36:18.760Z,28.09
2023-05-01T22:38:43.441Z,28.13
2023-05-01T22:41:09.978Z,28.24
2023-05-01T22:43:34.783Z,28.35
2023-05-01T22:46:01.013Z,28.48
2023-05-01T22:48:26.405Z,28.44
2023-05-01T22:49:37.840Z,28.46
2023-05-01T22:52:03.269Z,28.56
2023-05-01T22:53:12.201Z,28.54
2023-05-01T22:54:22.005Z,28.51
2023-05-01T22:55:31.240Z,28.55
2023-05-01T22:57:56.326Z,28.67
2023-05-01T22:59:07.219Z,28.73
2023-05-01T23:01:32.464Z,28.74
2023-05-01T23:03:58.134Z,28.85
2023-05-01T23:06:24.046Z,28.82
2023-05-01T23:08:54.266Z,28.81
2023-05-01T23:11:20.636Z,28.87
2023-05-01T23:13:48.314Z,28.70
2023-05-01T23:16:18.379Z,28.57
2023-05-01T23:18:46.481Z,28.68
2023-05-01T23:21:19.402Z,28.57
2023-05-01T23:23:47.411Z,28.33
2023-05-01T23:24:57.200Z,28.30
2023-05-01T23:27:22.509Z,28.56
2023-05-01T23:28:32.687Z,28.38
2023-05-01T23:31:01.955Z,28.32
2023-05-01T23:33:33.949Z,28.22
2023-05-01T23:34:48.259Z,28.27
2023-05-01T23:35:58.803Z,28.26
2023-05-01T23:37:08.111Z,28.31
2023-05-01T23:38:19.209Z,28.25
2023-05-01T23:40:46.990Z,28.32
2023-05-01T23:43:12.610Z,28.29
2023-05-01T23:45:38.950Z,28.20
2023-05-01T23:46:48.257Z,28.23
2023-05-01T23:49:14.452Z,28.28
2023-05-01T23:50:24.731Z,28.36
2023-05-01T23:51:33.643Z,28.42
2023-05-01T23:52:44.452Z,28.34
2023-05-01T23:53:53.904Z,28.19
2023-05-01T23:55:03.127Z,28.25
2023-05-01T23:56:12.469Z,28.21
2023-05-01T23:57:23.215Z,28.18
2023-05-01T23:58:31.547Z,28.06
2023-05-01T23:59:42.158Z,27.95
